Agana, Guam
Current Conditions -  °F | °C
As of 6:54 PM on Thursday 23 Oct 2014 (Local Time) from PGUM Reporting Station
Broken Clouds Broken Clouds  
Wind Chill: 78°   Ceiling: 5500
Heat Index: 81°   Visibility: 10mi
Dew Point: 76°   Wind: 9mph
Humidity: 93%   Direction: 50°NE
Pressure: 29.84"   Gusts: NA
Location:  13.4751°N, 144.7484°E
Report Text: PGUM 230854Z 05008KT 10SM SCT045 BKN055 BKN070 26/24 A2984 RMK AO2 TSE35RAE51 SLP096 OCNL LTG DSNT SW P0039 60142 T02560244 51014
Loading
Personal Weather Stations






























Interactive Weather Map
Tropical Storm Tracking
New forecast layout! Learn more

10-Day Weather Forecast

Advertisements
Track Severe Weather on mobile